sensor_id;sensor_type;location;lat;lon;timestamp;P1;durP1;ratioP1;P2;durP2;ratioP2
65971;SDS011;52726;48.852;9.152;2023-12-29T00:00:24;1.33;;;1.15;;
65971;SDS011;52726;48.852;9.152;2023-12-29T00:02:49;2.28;;;1.10;;
65971;SDS011;52726;48.852;9.152;2023-12-29T00:05:15;1.27;;;1.17;;
65971;SDS011;52726;48.852;9.152;2023-12-29T00:07:40;1.35;;;1.13;;
65971;SDS011;52726;48.852;9.152;2023-12-29T00:10:05;1.85;;;1.08;;
65971;SDS011;52726;48.852;9.152;2023-12-29T00:12:31;1.65;;;1.55;;
65971;SDS011;52726;48.852;9.152;2023-12-29T00:14:57;1.83;;;1.35;;
65971;SDS011;52726;48.852;9.152;2023-12-29T00:17:22;1.60;;;1.50;;
65971;SDS011;52726;48.852;9.152;2023-12-29T00:19:47;2.38;;;1.45;;
65971;SDS011;52726;48.852;9.152;2023-12-29T00:22:12;1.25;;;1.15;;
65971;SDS011;52726;48.852;9.152;2023-12-29T00:24:38;1.40;;;1.30;;
65971;SDS011;52726;48.852;9.152;2023-12-29T00:27:04;1.60;;;1.50;;
65971;SDS011;52726;48.852;9.152;2023-12-29T00:29:29;1.40;;;1.30;;
65971;SDS011;52726;48.852;9.152;2023-12-29T00:31:57;2.75;;;1.48;;
65971;SDS011;52726;48.852;9.152;2023-12-29T00:34:23;1.35;;;1.25;;
65971;SDS011;52726;48.852;9.152;2023-12-29T00:36:51;1.38;;;0.88;;
65971;SDS011;52726;48.852;9.152;2023-12-29T00:39:17;0.32;;;0.32;;
65971;SDS011;52726;48.852;9.152;2023-12-29T00:41:42;1.30;;;1.20;;
65971;SDS011;52726;48.852;9.152;2023-12-29T00:44:10;2.30;;;1.42;;
65971;SDS011;52726;48.852;9.152;2023-12-29T00:46:35;1.33;;;1.23;;
65971;SDS011;52726;48.852;9.152;2023-12-29T00:49:01;1.60;;;1.50;;
65971;SDS011;52726;48.852;9.152;2023-12-29T00:51:29;1.42;;;1.25;;
65971;SDS011;52726;48.852;9.152;2023-12-29T00:53:54;0.65;;;0.65;;
65971;SDS011;52726;48.852;9.152;2023-12-29T00:56:20;1.42;;;1.33;;
65971;SDS011;52726;48.852;9.152;2023-12-29T00:58:46;4.65;;;1.40;;
65971;SDS011;52726;48.852;9.152;2023-12-29T01:01:11;1.10;;;1.10;;
65971;SDS011;52726;48.852;9.152;2023-12-29T01:03:36;1.30;;;1.20;;
65971;SDS011;52726;48.852;9.152;2023-12-29T01:06:02;1.60;;;1.50;;
65971;SDS011;52726;48.852;9.152;2023-12-29T01:08:28;2.40;;;1.90;;
65971;SDS011;52726;48.852;9.152;2023-12-29T01:10:53;2.22;;;1.40;;
65971;SDS011;52726;48.852;9.152;2023-12-29T01:13:19;6.55;;;1.73;;
65971;SDS011;52726;48.852;9.152;2023-12-29T01:15:45;1.92;;;1.73;;
65971;SDS011;52726;48.852;9.152;2023-12-29T01:18:11;1.48;;;1.38;;
65971;SDS011;52726;48.852;9.152;2023-12-29T01:20:39;2.25;;;1.63;;
65971;SDS011;52726;48.852;9.152;2023-12-29T01:23:05;1.40;;;1.30;;
65971;SDS011;52726;48.852;9.152;2023-12-29T01:25:30;1.50;;;1.40;;
65971;SDS011;52726;48.852;9.152;2023-12-29T01:27:55;2.75;;;1.70;;
65971;SDS011;52726;48.852;9.152;2023-12-29T01:30:21;1.65;;;1.27;;
65971;SDS011;52726;48.852;9.152;2023-12-29T01:32:46;1.50;;;1.40;;
65971;SDS011;52726;48.852;9.152;2023-12-29T01:35:11;1.02;;;0.95;;
65971;SDS011;52726;48.852;9.152;2023-12-29T01:37:37;1.60;;;1.50;;
65971;SDS011;52726;48.852;9.152;2023-12-29T01:40:02;1.33;;;1.15;;
65971;SDS011;52726;48.852;9.152;2023-12-29T01:42:28;1.98;;;1.15;;
65971;SDS011;52726;48.852;9.152;2023-12-29T01:44:53;1.73;;;1.60;;
65971;SDS011;52726;48.852;9.152;2023-12-29T01:47:19;2.38;;;1.50;;
65971;SDS011;52726;48.852;9.152;2023-12-29T01:49:45;1.27;;;1.17;;
65971;SDS011;52726;48.852;9.152;2023-12-29T01:52:11;1.40;;;1.27;;
65971;SDS011;52726;48.852;9.152;2023-12-29T01:54:39;2.40;;;1.75;;
65971;SDS011;52726;48.852;9.152;2023-12-29T01:57:05;1.50;;;1.40;;
65971;SDS011;52726;48.852;9.152;2023-12-29T01:59:33;2.00;;;1.60;;
65971;SDS011;52726;48.852;9.152;2023-12-29T02:02:00;1.23;;;1.13;;
65971;SDS011;52726;48.852;9.152;2023-12-29T02:04:27;1.40;;;1.30;;
65971;SDS011;52726;48.852;9.152;2023-12-29T02:06:53;2.38;;;1.45;;
65971;SDS011;52726;48.852;9.152;2023-12-29T02:09:19;1.52;;;1.20;;
65971;SDS011;52726;48.852;9.152;2023-12-29T02:11:45;4.70;;;1.52;;
65971;SDS011;52726;48.852;9.152;2023-12-29T02:14:11;1.33;;;1.23;;
65971;SDS011;52726;48.852;9.152;2023-12-29T02:16:42;1.65;;;1.40;;
65971;SDS011;52726;48.852;9.152;2023-12-29T02:22:11;1.73;;;1.60;;
65971;SDS011;52726;48.852;9.152;2023-12-29T02:24:38;1.48;;;1.33;;
65971;SDS011;52726;48.852;9.152;2023-12-29T02:27:08;0.90;;;0.90;;
65971;SDS011;52726;48.852;9.152;2023-12-29T02:29:36;2.47;;;1.80;;
65971;SDS011;52726;48.852;9.152;2023-12-29T02:32:05;3.72;;;1.20;;
65971;SDS011;52726;48.852;9.152;2023-12-29T02:34:38;1.87;;;1.40;;
65971;SDS011;52726;48.852;9.152;2023-12-29T02:37:06;1.30;;;1.15;;
65971;SDS011;52726;48.852;9.152;2023-12-29T02:39:33;1.65;;;1.23;;
65971;SDS011;52726;48.852;9.152;2023-12-29T02:41:59;1.25;;;1.15;;
65971;SDS011;52726;48.852;9.152;2023-12-29T02:44:24;1.30;;;1.20;;
65971;SDS011;52726;48.852;9.152;2023-12-29T02:46:49;1.60;;;1.45;;
65971;SDS011;52726;48.852;9.152;2023-12-29T02:49:18;1.70;;;1.42;;
65971;SDS011;52726;48.852;9.152;2023-12-29T02:51:46;1.85;;;1.52;;
65971;SDS011;52726;48.852;9.152;2023-12-29T02:54:13;2.05;;;1.60;;
65971;SDS011;52726;48.852;9.152;2023-12-29T02:56:38;2.05;;;1.67;;
65971;SDS011;52726;48.852;9.152;2023-12-29T02:59:04;1.55;;;1.42;;
65971;SDS011;52726;48.852;9.152;2023-12-29T03:01:29;1.38;;;1.27;;
65971;SDS011;52726;48.852;9.152;2023-12-29T03:03:54;1.92;;;1.45;;
65971;SDS011;52726;48.852;9.152;2023-12-29T03:06:20;4.72;;;1.20;;
65971;SDS011;52726;48.852;9.152;2023-12-29T03:08:45;3.65;;;1.30;;
65971;SDS011;52726;48.852;9.152;2023-12-29T03:11:13;3.47;;;1.90;;
65971;SDS011;52726;48.852;9.152;2023-12-29T03:13:39;1.75;;;1.20;;
65971;SDS011;52726;48.852;9.152;2023-12-29T03:16:04;1.50;;;1.40;;
65971;SDS011;52726;48.852;9.152;2023-12-29T03:18:30;3.75;;;1.58;;
65971;SDS011;52726;48.852;9.152;2023-12-29T03:20:55;1.02;;;0.98;;
65971;SDS011;52726;48.852;9.152;2023-12-29T03:23:20;1.23;;;1.02;;
65971;SDS011;52726;48.852;9.152;2023-12-29T03:25:46;1.75;;;1.60;;
65971;SDS011;52726;48.852;9.152;2023-12-29T03:28:11;2.55;;;1.25;;
65971;SDS011;52726;48.852;9.152;2023-12-29T03:30:37;1.83;;;1.30;;
65971;SDS011;52726;48.852;9.152;2023-12-29T03:33:02;4.10;;;1.92;;
65971;SDS011;52726;48.852;9.152;2023-12-29T03:35:27;1.83;;;1.42;;
65971;SDS011;52726;48.852;9.152;2023-12-29T03:37:53;1.83;;;1.48;;
65971;SDS011;52726;48.852;9.152;2023-12-29T03:40:18;3.38;;;1.63;;
65971;SDS011;52726;48.852;9.152;2023-12-29T03:42:43;1.95;;;1.58;;
65971;SDS011;52726;48.852;9.152;2023-12-29T03:45:09;2.17;;;1.45;;
65971;SDS011;52726;48.852;9.152;2023-12-29T03:47:34;2.22;;;1.45;;
65971;SDS011;52726;48.852;9.152;2023-12-29T03:50:01;2.47;;;1.67;;
65971;SDS011;52726;48.852;9.152;2023-12-29T03:52:26;4.35;;;1.60;;
65971;SDS011;52726;48.852;9.152;2023-12-29T03:54:51;2.00;;;1.63;;
65971;SDS011;52726;48.852;9.152;2023-12-29T03:57:17;1.60;;;1.50;;
65971;SDS011;52726;48.852;9.152;2023-12-29T03:59:42;1.90;;;1.50;;
65971;SDS011;52726;48.852;9.152;2023-12-29T04:02:07;1.90;;;1.60;;
65971;SDS011;52726;48.852;9.152;2023-12-29T04:04:35;1.83;;;1.58;;
65971;SDS011;52726;48.852;9.152;2023-12-29T04:07:01;1.98;;;1.65;;
65971;SDS011;52726;48.852;9.152;2023-12-29T04:09:27;2.22;;;1.50;;
65971;SDS011;52726;48.852;9.152;2023-12-29T04:11:52;1.77;;;1.33;;
65971;SDS011;52726;48.852;9.152;2023-12-29T04:14:17;1.92;;;1.73;;
65971;SDS011;52726;48.852;9.152;2023-12-29T04:16:43;2.10;;;1.33;;
65971;SDS011;52726;48.852;9.152;2023-12-29T04:19:08;1.48;;;1.38;;
65971;SDS011;52726;48.852;9.152;2023-12-29T04:21:34;4.50;;;1.50;;
65971;SDS011;52726;48.852;9.152;2023-12-29T04:23:59;1.50;;;1.40;;
65971;SDS011;52726;48.852;9.152;2023-12-29T04:26:24;1.60;;;1.50;;
65971;SDS011;52726;48.852;9.152;2023-12-29T04:28:50;2.25;;;1.80;;
65971;SDS011;52726;48.852;9.152;2023-12-29T04:31:15;1.67;;;1.25;;
65971;SDS011;52726;48.852;9.152;2023-12-29T04:33:40;1.52;;;1.42;;
65971;SDS011;52726;48.852;9.152;2023-12-29T04:36:06;1.33;;;1.23;;
65971;SDS011;52726;48.852;9.152;2023-12-29T04:38:31;2.22;;;1.70;;
65971;SDS011;52726;48.852;9.152;2023-12-29T04:40:56;3.72;;;1.30;;
65971;SDS011;52726;48.852;9.152;2023-12-29T04:43:22;1.98;;;1.65;;
65971;SDS011;52726;48.852;9.152;2023-12-29T04:45:47;1.85;;;1.52;;
65971;SDS011;52726;48.852;9.152;2023-12-29T04:48:12;1.77;;;1.48;;
65971;SDS011;52726;48.852;9.152;2023-12-29T04:50:38;1.48;;;1.38;;
65971;SDS011;52726;48.852;9.152;2023-12-29T04:53:03;4.70;;;1.58;;
65971;SDS011;52726;48.852;9.152;2023-12-29T04:55:28;1.52;;;1.30;;
65971;SDS011;52726;48.852;9.152;2023-12-29T04:57:54;2.17;;;1.80;;
65971;SDS011;52726;48.852;9.152;2023-12-29T05:00:19;0.77;;;0.75;;
65971;SDS011;52726;48.852;9.152;2023-12-29T05:02:44;1.52;;;1.20;;
65971;SDS011;52726;48.852;9.152;2023-12-29T05:05:10;4.43;;;1.83;;
65971;SDS011;52726;48.852;9.152;2023-12-29T05:07:36;1.58;;;1.23;;
65971;SDS011;52726;48.852;9.152;2023-12-29T05:10:01;1.52;;;1.30;;
65971;SDS011;52726;48.852;9.152;2023-12-29T05:12:26;1.65;;;1.52;;
65971;SDS011;52726;48.852;9.152;2023-12-29T05:14:52;4.47;;;1.55;;
65971;SDS011;52726;48.852;9.152;2023-12-29T05:17:30;2.05;;;1.70;;
65971;SDS011;52726;48.852;9.152;2023-12-29T05:19:56;6.25;;;1.92;;
65971;SDS011;52726;48.852;9.152;2023-12-29T05:22:21;2.60;;;1.92;;
65971;SDS011;52726;48.852;9.152;2023-12-29T05:24:46;1.50;;;1.40;;
65971;SDS011;52726;48.852;9.152;2023-12-29T05:27:12;3.58;;;1.67;;
65971;SDS011;52726;48.852;9.152;2023-12-29T05:29:37;2.38;;;1.23;;
65971;SDS011;52726;48.852;9.152;2023-12-29T05:32:03;2.15;;;1.60;;
65971;SDS011;52726;48.852;9.152;2023-12-29T05:34:29;3.15;;;1.40;;
65971;SDS011;52726;48.852;9.152;2023-12-29T05:36:54;1.33;;;1.20;;
65971;SDS011;52726;48.852;9.152;2023-12-29T05:39:20;1.95;;;1.30;;
65971;SDS011;52726;48.852;9.152;2023-12-29T05:41:45;3.67;;;1.75;;
65971;SDS011;52726;48.852;9.152;2023-12-29T05:44:10;2.42;;;1.70;;
65971;SDS011;52726;48.852;9.152;2023-12-29T05:46:36;1.42;;;1.30;;
65971;SDS011;52726;48.852;9.152;2023-12-29T05:49:01;2.63;;;1.50;;
65971;SDS011;52726;48.852;9.152;2023-12-29T05:51:27;1.38;;;1.27;;
65971;SDS011;52726;48.852;9.152;2023-12-29T05:53:52;1.17;;;1.15;;
65971;SDS011;52726;48.852;9.152;2023-12-29T05:56:17;2.45;;;1.50;;
65971;SDS011;52726;48.852;9.152;2023-12-29T05:58:43;1.65;;;1.20;;
65971;SDS011;52726;48.852;9.152;2023-12-29T06:01:08;1.20;;;1.15;;
65971;SDS011;52726;48.852;9.152;2023-12-29T06:03:34;2.58;;;1.55;;
65971;SDS011;52726;48.852;9.152;2023-12-29T06:05:59;3.65;;;1.92;;
65971;SDS011;52726;48.852;9.152;2023-12-29T06:08:25;1.38;;;1.27;;
65971;SDS011;52726;48.852;9.152;2023-12-29T06:10:50;2.47;;;1.55;;
65971;SDS011;52726;48.852;9.152;2023-12-29T06:13:16;1.33;;;1.23;;
65971;SDS011;52726;48.852;9.152;2023-12-29T06:15:41;3.38;;;1.70;;
65971;SDS011;52726;48.852;9.152;2023-12-29T06:18:06;2.03;;;1.35;;
65971;SDS011;52726;48.852;9.152;2023-12-29T06:20:32;1.70;;;1.52;;
65971;SDS011;52726;48.852;9.152;2023-12-29T06:22:57;1.40;;;1.30;;
65971;SDS011;52726;48.852;9.152;2023-12-29T06:25:22;1.98;;;1.83;;
65971;SDS011;52726;48.852;9.152;2023-12-29T06:27:48;1.63;;;1.52;;
65971;SDS011;52726;48.852;9.152;2023-12-29T06:30:14;2.03;;;1.83;;
65971;SDS011;52726;48.852;9.152;2023-12-29T06:32:40;0.85;;;0.68;;
65971;SDS011;52726;48.852;9.152;2023-12-29T06:35:06;2.72;;;1.80;;
65971;SDS011;52726;48.852;9.152;2023-12-29T06:37:32;1.52;;;1.20;;
65971;SDS011;52726;48.852;9.152;2023-12-29T06:39:57;1.73;;;1.30;;
65971;SDS011;52726;48.852;9.152;2023-12-29T06:42:23;1.40;;;1.27;;
65971;SDS011;52726;48.852;9.152;2023-12-29T06:44:48;3.63;;;1.55;;
65971;SDS011;52726;48.852;9.152;2023-12-29T06:47:14;6.40;;;1.38;;
65971;SDS011;52726;48.852;9.152;2023-12-29T06:49:39;1.73;;;1.63;;
65971;SDS011;52726;48.852;9.152;2023-12-29T06:52:04;1.63;;;1.48;;
65971;SDS011;52726;48.852;9.152;2023-12-29T06:54:30;1.05;;;0.98;;
65971;SDS011;52726;48.852;9.152;2023-12-29T06:56:56;1.52;;;1.40;;
65971;SDS011;52726;48.852;9.152;2023-12-29T06:59:22;1.40;;;1.30;;
65971;SDS011;52726;48.852;9.152;2023-12-29T07:01:47;1.15;;;1.05;;
65971;SDS011;52726;48.852;9.152;2023-12-29T07:04:12;1.30;;;1.05;;
65971;SDS011;52726;48.852;9.152;2023-12-29T07:06:38;2.55;;;1.17;;
65971;SDS011;52726;48.852;9.152;2023-12-29T07:09:04;1.60;;;1.45;;
65971;SDS011;52726;48.852;9.152;2023-12-29T07:11:30;1.45;;;1.33;;
65971;SDS011;52726;48.852;9.152;2023-12-29T07:13:55;1.40;;;1.30;;
65971;SDS011;52726;48.852;9.152;2023-12-29T07:16:20;1.50;;;1.40;;
65971;SDS011;52726;48.852;9.152;2023-12-29T07:18:46;1.40;;;1.30;;
65971;SDS011;52726;48.852;9.152;2023-12-29T07:21:12;2.58;;;1.30;;
65971;SDS011;52726;48.852;9.152;2023-12-29T07:23:38;1.60;;;1.30;;
65971;SDS011;52726;48.852;9.152;2023-12-29T07:26:04;1.00;;;1.00;;
65971;SDS011;52726;48.852;9.152;2023-12-29T07:28:29;5.13;;;1.27;;
65971;SDS011;52726;48.852;9.152;2023-12-29T07:30:56;1.25;;;1.13;;
65971;SDS011;52726;48.852;9.152;2023-12-29T07:33:21;0.68;;;0.68;;
65971;SDS011;52726;48.852;9.152;2023-12-29T07:35:48;0.82;;;0.82;;
65971;SDS011;52726;48.852;9.152;2023-12-29T07:38:14;4.00;;;1.25;;
65971;SDS011;52726;48.852;9.152;2023-12-29T07:40:39;0.82;;;0.82;;
65971;SDS011;52726;48.852;9.152;2023-12-29T07:43:05;1.60;;;1.38;;
65971;SDS011;52726;48.852;9.152;2023-12-29T07:45:30;0.70;;;0.70;;
65971;SDS011;52726;48.852;9.152;2023-12-29T07:47:56;1.30;;;0.98;;
65971;SDS011;52726;48.852;9.152;2023-12-29T07:50:22;1.50;;;1.23;;
65971;SDS011;52726;48.852;9.152;2023-12-29T07:52:47;1.00;;;1.00;;
65971;SDS011;52726;48.852;9.152;2023-12-29T07:55:13;1.10;;;1.05;;
65971;SDS011;52726;48.852;9.152;2023-12-29T07:57:41;0.98;;;0.90;;
65971;SDS011;52726;48.852;9.152;2023-12-29T08:00:07;1.17;;;1.00;;
65971;SDS011;52726;48.852;9.152;2023-12-29T08:02:32;0.90;;;0.90;;
65971;SDS011;52726;48.852;9.152;2023-12-29T08:04:58;1.45;;;1.20;;
65971;SDS011;52726;48.852;9.152;2023-12-29T08:07:23;0.73;;;0.70;;
65971;SDS011;52726;48.852;9.152;2023-12-29T08:09:49;0.93;;;0.93;;
65971;SDS011;52726;48.852;9.152;2023-12-29T08:12:14;0.82;;;0.82;;
65971;SDS011;52726;48.852;9.152;2023-12-29T08:14:39;0.90;;;0.90;;
65971;SDS011;52726;48.852;9.152;2023-12-29T08:17:05;1.52;;;0.93;;
65971;SDS011;52726;48.852;9.152;2023-12-29T08:19:32;0.88;;;0.80;;
65971;SDS011;52726;48.852;9.152;2023-12-29T08:21:57;1.10;;;1.00;;
65971;SDS011;52726;48.852;9.152;2023-12-29T08:24:22;1.13;;;1.02;;
65971;SDS011;52726;48.852;9.152;2023-12-29T08:26:48;1.10;;;1.02;;
65971;SDS011;52726;48.852;9.152;2023-12-29T08:29:13;1.30;;;1.05;;
65971;SDS011;52726;48.852;9.152;2023-12-29T08:31:40;0.75;;;0.75;;
65971;SDS011;52726;48.852;9.152;2023-12-29T08:34:07;1.60;;;1.23;;
65971;SDS011;52726;48.852;9.152;2023-12-29T08:36:32;1.00;;;1.00;;
65971;SDS011;52726;48.852;9.152;2023-12-29T08:38:58;1.13;;;1.10;;
65971;SDS011;52726;48.852;9.152;2023-12-29T08:41:23;1.00;;;1.00;;
65971;SDS011;52726;48.852;9.152;2023-12-29T08:43:49;1.88;;;1.27;;
65971;SDS011;52726;48.852;9.152;2023-12-29T08:46:14;2.25;;;1.45;;
65971;SDS011;52726;48.852;9.152;2023-12-29T08:48:39;0.80;;;0.80;;
65971;SDS011;52726;48.852;9.152;2023-12-29T08:51:05;1.42;;;1.23;;
65971;SDS011;52726;48.852;9.152;2023-12-29T08:53:31;1.10;;;1.00;;
65971;SDS011;52726;48.852;9.152;2023-12-29T08:56:00;3.50;;;1.13;;
65971;SDS011;52726;48.852;9.152;2023-12-29T08:58:25;1.08;;;1.00;;
65971;SDS011;52726;48.852;9.152;2023-12-29T09:00:52;1.10;;;1.00;;
65971;SDS011;52726;48.852;9.152;2023-12-29T09:03:18;2.08;;;1.33;;
65971;SDS011;52726;48.852;9.152;2023-12-29T09:05:43;2.08;;;1.10;;
65971;SDS011;52726;48.852;9.152;2023-12-29T09:08:08;1.23;;;1.17;;
65971;SDS011;52726;48.852;9.152;2023-12-29T09:10:34;1.33;;;1.23;;
65971;SDS011;52726;48.852;9.152;2023-12-29T09:12:59;1.65;;;1.15;;
65971;SDS011;52726;48.852;9.152;2023-12-29T09:15:25;0.82;;;0.82;;
65971;SDS011;52726;48.852;9.152;2023-12-29T09:17:50;0.93;;;0.88;;
65971;SDS011;52726;48.852;9.152;2023-12-29T09:20:16;0.90;;;0.90;;
65971;SDS011;52726;48.852;9.152;2023-12-29T09:22:41;1.45;;;1.35;;
65971;SDS011;52726;48.852;9.152;2023-12-29T09:25:07;2.85;;;1.60;;
65971;SDS011;52726;48.852;9.152;2023-12-29T09:27:32;1.20;;;1.10;;
65971;SDS011;52726;48.852;9.152;2023-12-29T09:29:58;1.45;;;1.08;;
65971;SDS011;52726;48.852;9.152;2023-12-29T09:32:23;1.00;;;1.00;;
65971;SDS011;52726;48.852;9.152;2023-12-29T09:34:48;0.90;;;0.90;;
65971;SDS011;52726;48.852;9.152;2023-12-29T09:37:14;1.25;;;1.15;;
65971;SDS011;52726;48.852;9.152;2023-12-29T09:39:39;1.05;;;1.00;;
65971;SDS011;52726;48.852;9.152;2023-12-29T09:42:05;1.42;;;1.00;;
65971;SDS011;52726;48.852;9.152;2023-12-29T09:44:32;0.88;;;0.88;;
65971;SDS011;52726;48.852;9.152;2023-12-29T09:47:03;1.42;;;0.98;;
65971;SDS011;52726;48.852;9.152;2023-12-29T09:49:34;0.85;;;0.82;;
65971;SDS011;52726;48.852;9.152;2023-12-29T09:52:03;1.38;;;0.85;;
65971;SDS011;52726;48.852;9.152;2023-12-29T09:54:29;1.50;;;1.10;;
65971;SDS011;52726;48.852;9.152;2023-12-29T09:56:57;0.80;;;0.75;;
65971;SDS011;52726;48.852;9.152;2023-12-29T09:59:23;1.17;;;1.08;;
65971;SDS011;52726;48.852;9.152;2023-12-29T10:01:50;1.00;;;1.00;;
65971;SDS011;52726;48.852;9.152;2023-12-29T10:04:17;0.80;;;0.80;;
65971;SDS011;52726;48.852;9.152;2023-12-29T10:06:43;0.73;;;0.73;;
65971;SDS011;52726;48.852;9.152;2023-12-29T10:09:11;1.00;;;1.00;;
65971;SDS011;52726;48.852;9.152;2023-12-29T10:11:38;1.30;;;0.88;;
65971;SDS011;52726;48.852;9.152;2023-12-29T10:14:23;0.70;;;0.70;;
65971;SDS011;52726;48.852;9.152;2023-12-29T10:16:57;0.90;;;0.90;;
65971;SDS011;52726;48.852;9.152;2023-12-29T10:19:37;0.80;;;0.80;;
65971;SDS011;52726;48.852;9.152;2023-12-29T10:22:11;0.63;;;0.63;;
65971;SDS011;52726;48.852;9.152;2023-12-29T10:24:53;0.70;;;0.70;;
65971;SDS011;52726;48.852;9.152;2023-12-29T10:27:19;0.77;;;0.68;;
65971;SDS011;52726;48.852;9.152;2023-12-29T10:29:44;0.77;;;0.77;;
65971;SDS011;52726;48.852;9.152;2023-12-29T10:32:10;0.60;;;0.60;;
65971;SDS011;52726;48.852;9.152;2023-12-29T10:34:35;0.70;;;0.70;;
65971;SDS011;52726;48.852;9.152;2023-12-29T10:37:01;0.98;;;0.88;;
65971;SDS011;52726;48.852;9.152;2023-12-29T10:39:29;1.10;;;1.08;;
65971;SDS011;52726;48.852;9.152;2023-12-29T10:42:07;0.95;;;0.70;;
65971;SDS011;52726;48.852;9.152;2023-12-29T10:44:34;0.80;;;0.80;;
65971;SDS011;52726;48.852;9.152;2023-12-29T10:47:09;0.90;;;0.90;;
65971;SDS011;52726;48.852;9.152;2023-12-29T10:49:41;0.90;;;0.90;;
65971;SDS011;52726;48.852;9.152;2023-12-29T10:52:13;0.80;;;0.80;;
65971;SDS011;52726;48.852;9.152;2023-12-29T10:54:39;0.85;;;0.85;;
65971;SDS011;52726;48.852;9.152;2023-12-29T10:57:04;1.40;;;0.98;;
65971;SDS011;52726;48.852;9.152;2023-12-29T10:59:29;0.98;;;0.98;;
65971;SDS011;52726;48.852;9.152;2023-12-29T11:01:55;0.80;;;0.80;;
65971;SDS011;52726;48.852;9.152;2023-12-29T11:04:24;0.80;;;0.77;;
65971;SDS011;52726;48.852;9.152;2023-12-29T11:06:50;1.08;;;0.50;;
65971;SDS011;52726;48.852;9.152;2023-12-29T11:12:01;0.95;;;0.65;;
65971;SDS011;52726;48.852;9.152;2023-12-29T11:14:28;0.60;;;0.60;;
65971;SDS011;52726;48.852;9.152;2023-12-29T11:16:57;0.60;;;0.60;;
65971;SDS011;52726;48.852;9.152;2023-12-29T11:19:28;0.73;;;0.73;;
65971;SDS011;52726;48.852;9.152;2023-12-29T11:21:54;0.73;;;0.65;;
65971;SDS011;52726;48.852;9.152;2023-12-29T11:24:21;0.82;;;0.55;;
65971;SDS011;52726;48.852;9.152;2023-12-29T11:26:48;0.40;;;0.40;;
65971;SDS011;52726;48.852;9.152;2023-12-29T11:29:14;0.57;;;0.57;;
65971;SDS011;52726;48.852;9.152;2023-12-29T11:31:41;0.60;;;0.60;;
65971;SDS011;52726;48.852;9.152;2023-12-29T11:34:11;0.73;;;0.73;;
65971;SDS011;52726;48.852;9.152;2023-12-29T11:36:46;0.70;;;0.70;;
65971;SDS011;52726;48.852;9.152;2023-12-29T11:42:05;0.43;;;0.43;;
65971;SDS011;52726;48.852;9.152;2023-12-29T11:44:52;0.70;;;0.70;;
65971;SDS011;52726;48.852;9.152;2023-12-29T11:50:03;0.50;;;0.50;;
65971;SDS011;52726;48.852;9.152;2023-12-29T11:52:33;0.47;;;0.47;;
65971;SDS011;52726;48.852;9.152;2023-12-29T11:55:12;0.50;;;0.50;;
65971;SDS011;52726;48.852;9.152;2023-12-29T11:57:39;0.60;;;0.60;;
65971;SDS011;52726;48.852;9.152;2023-12-29T12:00:06;0.52;;;0.52;;
65971;SDS011;52726;48.852;9.152;2023-12-29T12:02:31;2.83;;;0.50;;
65971;SDS011;52726;48.852;9.152;2023-12-29T12:04:57;0.50;;;0.50;;
65971;SDS011;52726;48.852;9.152;2023-12-29T12:09:52;0.50;;;0.50;;
65971;SDS011;52726;48.852;9.152;2023-12-29T12:17:59;0.60;;;0.60;;
65971;SDS011;52726;48.852;9.152;2023-12-29T12:20:29;0.70;;;0.60;;
65971;SDS011;52726;48.852;9.152;2023-12-29T12:23:28;0.70;;;0.70;;
65971;SDS011;52726;48.852;9.152;2023-12-29T12:25:49;0.75;;;0.70;;
65971;SDS011;52726;48.852;9.152;2023-12-29T12:28:15;0.70;;;0.70;;
65971;SDS011;52726;48.852;9.152;2023-12-29T12:30:41;0.50;;;0.50;;
65971;SDS011;52726;48.852;9.152;2023-12-29T12:33:07;0.40;;;0.40;;
65971;SDS011;52726;48.852;9.152;2023-12-29T12:35:36;0.82;;;0.57;;
65971;SDS011;52726;48.852;9.152;2023-12-29T12:38:14;2.10;;;0.95;;
65971;SDS011;52726;48.852;9.152;2023-12-29T12:40:47;0.70;;;0.70;;
65971;SDS011;52726;48.852;9.152;2023-12-29T12:43:15;0.63;;;0.52;;
65971;SDS011;52726;48.852;9.152;2023-12-29T12:45:42;0.22;;;0.22;;
65971;SDS011;52726;48.852;9.152;2023-12-29T12:48:13;0.45;;;0.45;;
65971;SDS011;52726;48.852;9.152;2023-12-29T12:50:46;3.40;;;0.63;;
65971;SDS011;52726;48.852;9.152;2023-12-29T12:53:12;0.70;;;0.70;;
65971;SDS011;52726;48.852;9.152;2023-12-29T12:55:44;0.95;;;0.70;;
65971;SDS011;52726;48.852;9.152;2023-12-29T12:58:12;0.57;;;0.45;;
65971;SDS011;52726;48.852;9.152;2023-12-29T13:00:39;0.50;;;0.50;;
65971;SDS011;52726;48.852;9.152;2023-12-29T13:03:05;0.60;;;0.60;;
65971;SDS011;52726;48.852;9.152;2023-12-29T13:05:31;0.80;;;0.73;;
65971;SDS011;52726;48.852;9.152;2023-12-29T13:07:56;3.55;;;0.70;;
65971;SDS011;52726;48.852;9.152;2023-12-29T13:10:22;0.70;;;0.70;;
65971;SDS011;52726;48.852;9.152;2023-12-29T13:12:54;0.95;;;0.90;;
65971;SDS011;52726;48.852;9.152;2023-12-29T13:15:20;1.77;;;0.75;;
65971;SDS011;52726;48.852;9.152;2023-12-29T13:17:54;0.88;;;0.82;;
65971;SDS011;52726;48.852;9.152;2023-12-29T13:20:20;0.73;;;0.73;;
65971;SDS011;52726;48.852;9.152;2023-12-29T13:22:49;0.70;;;0.70;;
65971;SDS011;52726;48.852;9.152;2023-12-29T13:25:24;0.98;;;0.88;;
65971;SDS011;52726;48.852;9.152;2023-12-29T13:27:50;0.63;;;0.63;;
65971;SDS011;52726;48.852;9.152;2023-12-29T13:30:17;1.15;;;1.05;;
65971;SDS011;52726;48.852;9.152;2023-12-29T13:32:44;1.25;;;0.80;;
65971;SDS011;52726;48.852;9.152;2023-12-29T13:35:11;1.20;;;1.10;;
65971;SDS011;52726;48.852;9.152;2023-12-29T13:37:54;0.70;;;0.70;;
65971;SDS011;52726;48.852;9.152;2023-12-29T13:43:25;1.45;;;0.70;;
65971;SDS011;52726;48.852;9.152;2023-12-29T13:45:53;1.10;;;1.00;;
65971;SDS011;52726;48.852;9.152;2023-12-29T13:48:18;0.88;;;0.82;;
65971;SDS011;52726;48.852;9.152;2023-12-29T13:50:47;0.60;;;0.60;;
65971;SDS011;52726;48.852;9.152;2023-12-29T13:53:20;0.73;;;0.73;;
65971;SDS011;52726;48.852;9.152;2023-12-29T13:55:46;0.50;;;0.50;;
65971;SDS011;52726;48.852;9.152;2023-12-29T13:58:11;0.80;;;0.80;;
65971;SDS011;52726;48.852;9.152;2023-12-29T14:00:38;0.57;;;0.57;;
65971;SDS011;52726;48.852;9.152;2023-12-29T14:03:05;1.17;;;1.08;;
65971;SDS011;52726;48.852;9.152;2023-12-29T14:05:47;0.75;;;0.65;;
65971;SDS011;52726;48.852;9.152;2023-12-29T14:08:31;3.63;;;1.25;;
65971;SDS011;52726;48.852;9.152;2023-12-29T14:11:09;0.90;;;0.80;;
65971;SDS011;52726;48.852;9.152;2023-12-29T14:13:35;1.27;;;0.98;;
65971;SDS011;52726;48.852;9.152;2023-12-29T14:16:06;1.45;;;0.63;;
65971;SDS011;52726;48.852;9.152;2023-12-29T14:24:08;1.55;;;0.70;;
65971;SDS011;52726;48.852;9.152;2023-12-29T14:29:19;0.68;;;0.68;;
65971;SDS011;52726;48.852;9.152;2023-12-29T14:31:45;1.48;;;0.75;;
65971;SDS011;52726;48.852;9.152;2023-12-29T14:34:11;0.60;;;0.60;;
65971;SDS011;52726;48.852;9.152;2023-12-29T14:36:39;1.48;;;1.38;;
65971;SDS011;52726;48.852;9.152;2023-12-29T14:39:05;0.70;;;0.70;;
65971;SDS011;52726;48.852;9.152;2023-12-29T14:41:31;0.77;;;0.77;;
65971;SDS011;52726;48.852;9.152;2023-12-29T14:43:57;0.80;;;0.80;;
65971;SDS011;52726;48.852;9.152;2023-12-29T14:46:23;2.08;;;0.93;;
65971;SDS011;52726;48.852;9.152;2023-12-29T14:48:48;0.65;;;0.65;;
65971;SDS011;52726;48.852;9.152;2023-12-29T14:51:14;0.68;;;0.68;;
65971;SDS011;52726;48.852;9.152;2023-12-29T14:53:42;1.17;;;0.60;;
65971;SDS011;52726;48.852;9.152;2023-12-29T14:56:08;0.73;;;0.60;;
65971;SDS011;52726;48.852;9.152;2023-12-29T14:58:34;0.73;;;0.73;;
65971;SDS011;52726;48.852;9.152;2023-12-29T15:01:01;0.63;;;0.63;;
65971;SDS011;52726;48.852;9.152;2023-12-29T15:03:28;0.75;;;0.75;;
65971;SDS011;52726;48.852;9.152;2023-12-29T15:05:53;0.80;;;0.80;;
65971;SDS011;52726;48.852;9.152;2023-12-29T15:08:19;1.25;;;0.85;;
65971;SDS011;52726;48.852;9.152;2023-12-29T15:10:45;1.23;;;1.00;;
65971;SDS011;52726;48.852;9.152;2023-12-29T15:13:10;1.98;;;0.70;;
65971;SDS011;52726;48.852;9.152;2023-12-29T15:15:36;0.43;;;0.43;;